createdAt,value
2024-01-11T00:02:09.602Z,101974.95
2024-01-11T00:04:42.076Z,101971.12
2024-01-11T00:07:14.661Z,101961.73
2024-01-11T00:09:47.047Z,101956.58
2024-01-11T00:12:19.352Z,101953.40
2024-01-11T00:14:51.792Z,101949.36
2024-01-11T00:17:24.021Z,101951.35
2024-01-11T00:19:56.209Z,101943.91
2024-01-11T00:22:28.609Z,101945.02
2024-01-11T00:25:00.631Z,101948.73
2024-01-11T00:27:32.906Z,101940.33
2024-01-11T00:30:06.622Z,101929.27
2024-01-11T00:32:39.145Z,101923.59
2024-01-11T00:35:11.685Z,101907.05
2024-01-11T00:37:43.922Z,101920.31
2024-01-11T00:40:16.362Z,101919.80
2024-01-11T00:42:48.725Z,101894.94
2024-01-11T00:45:21.073Z,101881.77
2024-01-11T00:47:53.207Z,101877.95
2024-01-11T00:50:25.381Z,101869.81
2024-01-11T00:52:57.410Z,101887.85
2024-01-11T00:55:29.730Z,101881.23
2024-01-11T00:58:02.416Z,101867.89
2024-01-11T01:00:34.589Z,101859.77
2024-01-11T01:03:08.047Z,101857.83
2024-01-11T01:05:40.306Z,101871.52
2024-01-11T01:08:12.545Z,101873.83
2024-01-11T01:10:44.641Z,101882.89
2024-01-11T01:13:16.896Z,101890.52
2024-01-11T01:15:49.532Z,101883.77
2024-01-11T01:18:21.808Z,101882.02
2024-01-11T01:20:53.861Z,101878.18
2024-01-11T01:23:25.930Z,101877.05
2024-01-11T01:25:57.929Z,101872.33
2024-01-11T01:28:30.030Z,101877.13
2024-01-11T01:31:02.543Z,101877.91
2024-01-11T01:33:35.069Z,101870.91
2024-01-11T01:36:10.110Z,101866.48
2024-01-11T01:38:42.669Z,101864.79
2024-01-11T01:41:15.092Z,101872.36
2024-01-11T01:43:47.319Z,101876.52
2024-01-11T01:46:25.366Z,101884.16
2024-01-11T01:48:59.423Z,101874.89
2024-01-11T01:51:34.080Z,101879.54
2024-01-11T01:54:07.276Z,101871.46
2024-01-11T01:56:39.657Z,101846.70
2024-01-11T01:59:12.840Z,101881.56
2024-01-11T02:01:45.357Z,101887.30
2024-01-11T02:04:17.604Z,101884.36
2024-01-11T02:06:50.726Z,101876.00
2024-01-11T02:09:23.062Z,101859.66
2024-01-11T02:11:55.551Z,101859.35
2024-01-11T02:14:28.891Z,101859.86
2024-01-11T02:17:01.954Z,101881.68
2024-01-11T02:19:35.307Z,101874.45
2024-01-11T02:22:15.082Z,101876.27
2024-01-11T02:24:47.252Z,101886.73
2024-01-11T02:27:19.344Z,101897.35
2024-01-11T02:29:51.518Z,101881.49
2024-01-11T02:32:24.227Z,101888.10
2024-01-11T02:34:57.065Z,101898.21
2024-01-11T02:37:29.750Z,101899.06
2024-01-11T02:40:02.518Z,101898.47
2024-01-11T02:42:34.516Z,101894.00
2024-01-11T02:45:07.546Z,101895.28
2024-01-11T02:47:40.369Z,101886.83
2024-01-11T02:50:13.990Z,101875.61
2024-01-11T02:52:46.341Z,101871.52
2024-01-11T02:55:18.431Z,101857.35
2024-01-11T02:57:50.738Z,101842.85
2024-01-11T03:00:23.020Z,101847.44
2024-01-11T03:02:55.129Z,101841.84
2024-01-11T03:05:27.462Z,101841.84
2024-01-11T03:07:59.861Z,101854.42
2024-01-11T03:10:32.404Z,101860.77
2024-01-11T03:13:04.717Z,101862.38
2024-01-11T03:15:36.939Z,101859.52
2024-01-11T03:18:09.480Z,101854.77
2024-01-11T03:20:42.468Z,101850.14
2024-01-11T03:23:15.027Z,101842.98
2024-01-11T03:25:47.700Z,101849.88
2024-01-11T03:28:19.796Z,101839.08
2024-01-11T03:30:53.742Z,101858.13
2024-01-11T03:33:26.073Z,101851.85
2024-01-11T03:35:58.605Z,101848.61
2024-01-11T03:38:30.716Z,101841.34
2024-01-11T03:41:02.939Z,101837.98
2024-01-11T03:43:35.092Z,101837.39
2024-01-11T03:46:07.398Z,101835.33
2024-01-11T03:48:39.776Z,101822.46
2024-01-11T03:51:12.002Z,101823.91
2024-01-11T03:53:44.219Z,101820.37
2024-01-11T03:56:16.636Z,101821.19
2024-01-11T03:58:48.764Z,101815.77
2024-01-11T04:01:20.995Z,101802.33
2024-01-11T04:03:53.376Z,101793.34
2024-01-11T04:06:26.919Z,101797.58
2024-01-11T04:08:59.073Z,101797.89
2024-01-11T04:11:32.619Z,101795.14
2024-01-11T04:14:04.661Z,101807.45
2024-01-11T04:16:41.492Z,101806.20
2024-01-11T04:19:14.017Z,101812.21
2024-01-11T04:21:46.478Z,101821.43
2024-01-11T04:24:18.809Z,101818.84
2024-01-11T04:26:50.979Z,101803.52
2024-01-11T04:29:23.041Z,101799.64
2024-01-11T04:31:55.319Z,101793.38
2024-01-11T04:34:27.487Z,101780.43
2024-01-11T04:36:59.925Z,101763.36
2024-01-11T04:39:33.322Z,101758.86
2024-01-11T04:42:06.235Z,101751.15
2024-01-11T04:44:38.315Z,101738.08
2024-01-11T04:47:10.795Z,101734.53
2024-01-11T04:49:43.221Z,101730.31
2024-01-11T04:52:15.597Z,101715.02
2024-01-11T04:54:49.376Z,101713.73
2024-01-11T04:57:21.631Z,101718.80
2024-01-11T04:59:54.388Z,101719.78
2024-01-11T05:02:26.637Z,101724.52
2024-01-11T05:04:58.923Z,101725.70
2024-01-11T05:07:32.092Z,101716.52
2024-01-11T05:10:05.065Z,101705.76
2024-01-11T05:12:37.965Z,101699.18
2024-01-11T05:15:11.476Z,101699.45
2024-01-11T05:17:43.991Z,101692.69
2024-01-11T05:20:16.906Z,101685.56
2024-01-11T05:22:49.341Z,101687.23
2024-01-11T05:25:21.550Z,101673.08
2024-01-11T05:27:53.587Z,101667.20
2024-01-11T05:30:28.422Z,101672.21
2024-01-11T05:33:02.471Z,101685.46
2024-01-11T05:35:34.640Z,101675.50
2024-01-11T05:38:07.089Z,101672.14
2024-01-11T05:40:39.314Z,101676.83
2024-01-11T05:43:11.418Z,101684.06
2024-01-11T05:45:47.873Z,101681.83
2024-01-11T05:48:21.125Z,101684.21
2024-01-11T05:50:53.197Z,101680.91
2024-01-11T05:53:26.641Z,101669.59
2024-01-11T05:55:58.793Z,101667.58
2024-01-11T05:58:30.966Z,101670.10
2024-01-11T06:01:03.126Z,101665.46
2024-01-11T06:03:36.169Z,101664.48
2024-01-11T06:06:09.931Z,101668.59
2024-01-11T06:08:43.976Z,101673.80
2024-01-11T06:11:16.341Z,101666.30
2024-01-11T06:13:48.543Z,101667.78
2024-01-11T06:16:20.801Z,101657.48
2024-01-11T06:18:53.979Z,101649.53
2024-01-11T06:21:26.139Z,101656.79
2024-01-11T06:23:58.293Z,101646.16
2024-01-11T06:26:30.543Z,101643.42
2024-01-11T06:29:02.581Z,101612.36
2024-01-11T06:31:34.799Z,101631.63
2024-01-11T06:34:07.076Z,101634.27
2024-01-11T06:36:39.152Z,101631.19
2024-01-11T06:39:11.278Z,101624.46
2024-01-11T06:41:43.570Z,101625.23
2024-01-11T06:44:15.698Z,101626.95
2024-01-11T06:46:47.836Z,101608.02
2024-01-11T06:49:20.027Z,101627.48
2024-01-11T06:51:52.917Z,101613.88
2024-01-11T06:54:25.068Z,101632.45
2024-01-11T06:56:57.164Z,101631.46
2024-01-11T06:59:29.247Z,101629.69
2024-01-11T07:02:01.347Z,101635.78
2024-01-11T07:04:34.789Z,101630.47
2024-01-11T07:07:07.478Z,101625.15
2024-01-11T07:09:39.815Z,101613.61
2024-01-11T07:12:12.853Z,101618.08
2024-01-11T07:14:46.060Z,101609.24
2024-01-11T07:17:18.868Z,101619.95
2024-01-11T07:19:51.112Z,101615.05
2024-01-11T07:22:23.286Z,101619.46
2024-01-11T07:24:55.594Z,101615.71
2024-01-11T07:27:27.817Z,101613.27
2024-01-11T07:29:59.804Z,101615.88
2024-01-11T07:32:31.913Z,101612.10
2024-01-11T07:35:05.553Z,101604.48
2024-01-11T07:37:40.710Z,101599.02
2024-01-11T07:40:14.795Z,101594.86
2024-01-11T07:42:48.139Z,101595.69
2024-01-11T07:45:20.333Z,101596.54
2024-01-11T07:47:52.570Z,101600.84
2024-01-11T07:50:24.874Z,101615.23
2024-01-11T07:52:57.442Z,101623.56
2024-01-11T07:55:29.636Z,101632.02
2024-01-11T07:58:01.858Z,101638.73
2024-01-11T08:00:33.966Z,101634.58
2024-01-11T08:03:06.616Z,101634.10
2024-01-11T08:05:38.982Z,101611.06
2024-01-11T08:08:11.770Z,101625.42
2024-01-11T08:10:44.943Z,101617.25
2024-01-11T08:13:19.511Z,101624.62
2024-01-11T08:15:51.640Z,101624.85
2024-01-11T08:18:23.783Z,101621.93
2024-01-11T08:20:55.819Z,101626.91
2024-01-11T08:23:28.030Z,101615.91
2024-01-11T08:26:00.104Z,101622.55
2024-01-11T08:28:33.388Z,101619.64
2024-01-11T08:31:06.183Z,101624.25
2024-01-11T08:33:38.996Z,101612.92
2024-01-11T08:36:12.783Z,101611.03
2024-01-11T08:38:45.074Z,101596.69
2024-01-11T08:41:17.615Z,101591.23
2024-01-11T08:43:49.848Z,101588.14
2024-01-11T08:46:28.590Z,101584.45
2024-01-11T08:49:01.061Z,101588.63
2024-01-11T08:51:33.356Z,101599.73
2024-01-11T08:54:10.103Z,101609.76
2024-01-11T08:56:42.738Z,101604.54
2024-01-11T08:59:15.245Z,101598.90
2024-01-11T09:01:57.209Z,101596.44
2024-01-11T09:04:35.243Z,101600.29
2024-01-11T09:07:07.874Z,101603.43
2024-01-11T09:09:44.859Z,101606.98
2024-01-11T09:12:24.143Z,101614.79
2024-01-11T09:14:56.982Z,101624.70
2024-01-11T09:17:29.166Z,101613.70
2024-01-11T09:20:01.552Z,101621.73
2024-01-11T09:22:34.302Z,101613.48
2024-01-11T09:25:08.282Z,101624.15
2024-01-11T09:27:40.610Z,101619.77
2024-01-11T09:30:13.903Z,101613.80
2024-01-11T09:32:46.519Z,101630.40
2024-01-11T09:35:19.301Z,101626.12
2024-01-11T09:37:51.489Z,101619.36
2024-01-11T09:40:23.880Z,101612.21
2024-01-11T09:42:56.178Z,101614.87
2024-01-11T09:45:28.441Z,101618.91
2024-01-11T09:48:02.666Z,101625.98
2024-01-11T09:50:35.184Z,101626.31
2024-01-11T09:53:09.653Z,101622.89
2024-01-11T09:55:40.253Z,101619.14
2024-01-11T09:58:13.854Z,101616.13
2024-01-11T10:00:47.211Z,101609.77
2024-01-11T10:03:21.419Z,101604.14
2024-01-11T10:05:57.731Z,101600.84
2024-01-11T10:08:31.679Z,101605.63
2024-01-11T10:11:04.459Z,101598.11
2024-01-11T10:13:38.679Z,101592.77
2024-01-11T10:16:14.943Z,101596.58
2024-01-11T10:18:47.196Z,101595.27
2024-01-11T10:21:20.232Z,101599.18
2024-01-11T10:23:52.901Z,101594.53
2024-01-11T10:26:25.169Z,101591.51
2024-01-11T10:29:03.296Z,101580.95
2024-01-11T10:31:37.624Z,101583.07
2024-01-11T10:34:09.976Z,101587.11
2024-01-11T10:36:42.573Z,101585.27
2024-01-11T10:39:18.893Z,101591.75
2024-01-11T10:42:02.466Z,101590.08
2024-01-11T10:44:37.911Z,101582.83
2024-01-11T10:47:12.495Z,101573.25
2024-01-11T10:49:46.800Z,101568.55
2024-01-11T10:52:23.682Z,101552.61
2024-01-11T10:54:56.517Z,101543.23
2024-01-11T10:57:29.726Z,101534.27
2024-01-11T11:00:04.671Z,101542.10
2024-01-11T11:02:38.694Z,101545.64
2024-01-11T11:05:13.110Z,101553.71
2024-01-11T11:07:46.316Z,101564.09
2024-01-11T11:10:19.573Z,101556.49
2024-01-11T11:12:53.827Z,101537.92
2024-01-11T11:15:29.097Z,101544.95
2024-01-11T11:18:02.217Z,101565.17
2024-01-11T11:20:57.604Z,101560.02
2024-01-11T11:23:31.202Z,101561.66
2024-01-11T11:26:03.975Z,101564.36
2024-01-11T11:28:37.732Z,101565.39
2024-01-11T11:31:09.918Z,101565.80
2024-01-11T11:33:42.954Z,101565.40
2024-01-11T11:36:19.641Z,101563.58
2024-01-11T11:39:01.318Z,101561.21
2024-01-11T11:41:38.056Z,101561.33
2024-01-11T11:44:14.449Z,101561.87
2024-01-11T11:46:48.633Z,101561.11
2024-01-11T11:49:22.679Z,101550.61
2024-01-11T11:51:58.362Z,101547.02
2024-01-11T11:54:31.832Z,101540.61
2024-01-11T11:57:05.016Z,101539.52
2024-01-11T11:59:37.707Z,101538.69
2024-01-11T12:02:16.832Z,101537.65
2024-01-11T12:04:51.501Z,101530.16
2024-01-11T12:07:24.313Z,101525.99
2024-01-11T12:09:56.902Z,101521.19
2024-01-11T12:12:30.374Z,101529.83
2024-01-11T12:15:02.713Z,101520.36
2024-01-11T12:17:35.460Z,101518.16
2024-01-11T12:20:10.986Z,101517.67
2024-01-11T12:22:43.136Z,101525.02
2024-01-11T12:25:15.410Z,101516.75
2024-01-11T12:27:48.497Z,101529.55
2024-01-11T12:30:25.026Z,101535.25
2024-01-11T12:32:58.705Z,101528.11
2024-01-11T12:35:32.337Z,101526.09
2024-01-11T12:38:08.019Z,101522.42
2024-01-11T12:40:43.096Z,101515.98
2024-01-11T12:43:16.258Z,101518.05
2024-01-11T12:45:48.340Z,101517.77
2024-01-11T12:48:21.027Z,101520.48
2024-01-11T12:51:05.747Z,101523.54
2024-01-11T12:53:49.699Z,101527.08
2024-01-11T12:56:24.154Z,101526.75
2024-01-11T12:59:09.913Z,101531.72
2024-01-11T13:01:40.806Z,101527.57
2024-01-11T13:04:13.905Z,101526.56
2024-01-11T13:06:46.202Z,101524.92
2024-01-11T13:09:19.077Z,101526.82
2024-01-11T13:11:52.465Z,101535.30
2024-01-11T13:14:24.697Z,101525.55
2024-01-11T13:16:56.858Z,101534.86
2024-01-11T13:19:29.210Z,101528.45
2024-01-11T13:22:01.599Z,101528.88
2024-01-11T13:24:33.855Z,101526.23
2024-01-11T13:27:07.360Z,101525.69
2024-01-11T13:29:40.721Z,101531.18
2024-01-11T13:32:14.616Z,101530.63
2024-01-11T13:34:47.450Z,101527.66
2024-01-11T13:37:19.630Z,101524.65
2024-01-11T13:39:52.008Z,101524.52
2024-01-11T13:42:27.284Z,101520.66
2024-01-11T13:45:04.555Z,101517.52
2024-01-11T13:47:37.141Z,101515.70
2024-01-11T13:50:10.072Z,101515.40
2024-01-11T13:52:43.668Z,101515.52
2024-01-11T13:55:17.286Z,101521.33
2024-01-11T13:57:49.748Z,101523.69
2024-01-11T14:00:22.790Z,101520.55
2024-01-11T14:02:57.302Z,101520.69
2024-01-11T14:05:30.520Z,101512.92
2024-01-11T14:08:06.874Z,101510.77
2024-01-11T14:10:41.314Z,101510.27
2024-01-11T14:13:14.552Z,101499.17
2024-01-11T14:15:49.524Z,101513.63
2024-01-11T14:18:22.339Z,101507.42
2024-01-11T14:20:54.834Z,101512.33
2024-01-11T14:23:27.118Z,101515.10
2024-01-11T14:25:59.732Z,101517.41
2024-01-11T14:28:32.114Z,101518.97
2024-01-11T14:31:05.631Z,101521.81
2024-01-11T14:33:38.818Z,101524.02
2024-01-11T14:36:11.964Z,101522.23
2024-01-11T14:38:44.779Z,101524.57
2024-01-11T14:41:17.291Z,101535.21
2024-01-11T14:43:55.908Z,101542.45
2024-01-11T14:46:29.036Z,101545.54
2024-01-11T14:49:01.860Z,101551.83
2024-01-11T14:51:35.165Z,101564.85
2024-01-11T14:54:08.547Z,101572.68
2024-01-11T14:56:40.756Z,101576.73
2024-01-11T14:59:12.863Z,101581.02
2024-01-11T15:01:46.768Z,101580.77
2024-01-11T15:04:19.608Z,101561.51
2024-01-11T15:06:51.693Z,101580.23
2024-01-11T15:09:24.523Z,101586.94
2024-01-11T15:11:57.124Z,101577.09
2024-01-11T15:14:29.792Z,101581.55
2024-01-11T15:17:04.852Z,101604.67
2024-01-11T15:19:37.370Z,101600.85
2024-01-11T15:22:13.318Z,101599.35
2024-01-11T15:24:45.791Z,101598.61
2024-01-11T15:27:19.386Z,101592.09
2024-01-11T15:29:53.282Z,101591.36
2024-01-11T15:32:26.079Z,101590.59
2024-01-11T15:34:59.858Z,101582.46
2024-01-11T15:37:33.662Z,101582.17
2024-01-11T15:40:06.977Z,101571.42
2024-01-11T15:42:40.551Z,101576.97
2024-01-11T15:45:13.325Z,101582.25
2024-01-11T15:47:45.757Z,101582.23
2024-01-11T15:50:17.931Z,101577.10
2024-01-11T15:52:50.398Z,101574.05
2024-01-11T15:55:22.572Z,101571.36
2024-01-11T15:57:55.806Z,101568.70
2024-01-11T16:00:28.361Z,101564.63
2024-01-11T16:03:00.706Z,101554.41
2024-01-11T16:05:34.540Z,101570.66
2024-01-11T16:08:08.328Z,101577.80
2024-01-11T16:10:40.814Z,101581.35
2024-01-11T16:13:12.949Z,101590.66
2024-01-11T16:15:45.472Z,101598.49
2024-01-11T16:18:18.710Z,101605.13
2024-01-11T16:20:52.297Z,101609.19
2024-01-11T16:23:24.824Z,101602.17
2024-01-11T16:25:57.348Z,101599.73
2024-01-11T16:28:29.767Z,101600.15
2024-01-11T16:31:01.851Z,101583.33
2024-01-11T16:33:34.012Z,101587.46
2024-01-11T16:36:06.956Z,101587.73
2024-01-11T16:38:39.433Z,101581.63
2024-01-11T16:41:12.420Z,101581.55
2024-01-11T16:43:46.989Z,101582.40
2024-01-11T16:46:23.766Z,101589.11
2024-01-11T16:48:56.327Z,101596.50
2024-01-11T16:51:28.980Z,101598.27
2024-01-11T16:54:01.354Z,101602.67
2024-01-11T16:56:35.105Z,101603.27
2024-01-11T16:59:07.770Z,101605.50
2024-01-11T17:01:40.623Z,101609.15
2024-01-11T17:04:13.010Z,101615.32
2024-01-11T17:06:45.679Z,101615.63
2024-01-11T17:09:18.647Z,101608.42
2024-01-11T17:11:52.633Z,101602.48
2024-01-11T17:14:25.002Z,101583.94
2024-01-11T17:16:57.218Z,101591.33
2024-01-11T17:19:31.174Z,101583.48
2024-01-11T17:22:04.085Z,101577.58
2024-01-11T17:24:36.536Z,101580.34
2024-01-11T17:27:09.945Z,101579.16
2024-01-11T17:29:43.327Z,101587.44
2024-01-11T17:32:16.441Z,101594.48
2024-01-11T17:34:53.122Z,101598.98
2024-01-11T17:37:26.994Z,101604.27
2024-01-11T17:39:59.292Z,101610.52
2024-01-11T17:42:31.286Z,101609.32
2024-01-11T17:45:04.980Z,101610.52
2024-01-11T17:47:37.540Z,101601.27
2024-01-11T17:50:11.177Z,101592.23
2024-01-11T17:52:45.871Z,101596.36
2024-01-11T17:55:19.263Z,101603.70
2024-01-11T17:57:51.651Z,101597.60
2024-01-11T18:00:24.097Z,101596.50
2024-01-11T18:02:56.604Z,101571.84
2024-01-11T18:05:29.008Z,101596.60
2024-01-11T18:08:01.637Z,101600.25
2024-01-11T18:10:36.959Z,101603.70
2024-01-11T18:13:09.022Z,101605.34
2024-01-11T18:15:41.196Z,101611.77
2024-01-11T18:18:13.372Z,101608.80
2024-01-11T18:20:45.685Z,101607.17
2024-01-11T18:23:21.307Z,101608.69
2024-01-11T18:25:53.785Z,101604.50
2024-01-11T18:28:26.549Z,101597.96
2024-01-11T18:30:58.734Z,101601.55
2024-01-11T18:33:30.966Z,101591.36
2024-01-11T18:36:03.197Z,101608.54
2024-01-11T18:38:36.162Z,101614.40
2024-01-11T18:41:09.574Z,101617.08
2024-01-11T18:43:41.782Z,101622.58
2024-01-11T18:46:15.604Z,101625.80
2024-01-11T18:48:49.617Z,101631.50
2024-01-11T18:51:21.937Z,101636.36
2024-01-11T18:53:54.454Z,101638.16
2024-01-11T18:56:26.805Z,101633.41
2024-01-11T18:58:59.552Z,101636.81
2024-01-11T19:01:32.523Z,101634.23
2024-01-11T19:04:04.854Z,101635.70
2024-01-11T19:06:37.139Z,101636.31
2024-01-11T19:09:09.429Z,101640.98
2024-01-11T19:11:41.564Z,101650.22
2024-01-11T19:14:16.695Z,101656.62
2024-01-11T19:16:49.026Z,101656.27
2024-01-11T19:19:21.755Z,101664.62
2024-01-11T19:21:54.346Z,101667.02
2024-01-11T19:24:26.696Z,101667.64
2024-01-11T19:26:58.978Z,101677.63
2024-01-11T19:29:33.525Z,101677.59
2024-01-11T19:32:06.389Z,101672.83
2024-01-11T19:34:38.896Z,101671.39
2024-01-11T19:37:12.450Z,101672.79
2024-01-11T19:39:45.066Z,101676.67
2024-01-11T19:42:17.078Z,101676.28
2024-01-11T19:44:49.381Z,101676.09
2024-01-11T19:47:21.827Z,101677.11
2024-01-11T19:49:54.025Z,101666.11
2024-01-11T19:52:26.473Z,101679.75
2024-01-11T19:54:58.624Z,101680.34
2024-01-11T19:57:32.416Z,101674.30
2024-01-11T20:00:05.769Z,101671.65
2024-01-11T20:02:43.086Z,101669.80
2024-01-11T20:05:15.699Z,101671.38
2024-01-11T20:07:47.946Z,101672.59
2024-01-11T20:10:20.316Z,101661.67
2024-01-11T20:12:52.348Z,101677.08
2024-01-11T20:15:24.756Z,101674.44
2024-01-11T20:17:57.349Z,101674.25
2024-01-11T20:20:29.471Z,101683.86
2024-01-11T20:23:02.155Z,101685.98
2024-01-11T20:25:34.424Z,101685.82
2024-01-11T20:28:08.368Z,101688.05
2024-01-11T20:30:40.852Z,101698.05
2024-01-11T20:33:13.875Z,101700.61
2024-01-11T20:35:46.548Z,101697.73
2024-01-11T20:38:18.897Z,101702.22
2024-01-11T20:40:58.913Z,101700.48
2024-01-11T20:43:31.721Z,101703.41
2024-01-11T20:46:04.312Z,101700.79
2024-01-11T20:48:36.696Z,101704.23
2024-01-11T20:51:10.683Z,101703.98
2024-01-11T20:53:42.960Z,101708.16
2024-01-11T20:56:16.006Z,101706.52
2024-01-11T20:58:48.925Z,101697.54
2024-01-11T21:01:21.317Z,101714.11
2024-01-11T21:03:57.196Z,101719.20
2024-01-11T21:06:29.422Z,101724.98
2024-01-11T21:09:02.020Z,101731.23
2024-01-11T21:11:34.661Z,101736.52
2024-01-11T21:14:06.810Z,101739.69
2024-01-11T21:16:39.401Z,101748.02
2024-01-11T21:19:11.882Z,101754.45
2024-01-11T21:21:45.567Z,101759.94
2024-01-11T21:24:17.904Z,101758.61
2024-01-11T21:26:51.267Z,101756.41
2024-01-11T21:29:23.785Z,101757.40
2024-01-11T21:31:56.402Z,101757.89
2024-01-11T21:34:28.633Z,101758.45
2024-01-11T21:37:01.008Z,101760.81
2024-01-11T21:39:34.401Z,101760.77
2024-01-11T21:42:07.001Z,101767.44
2024-01-11T21:44:39.126Z,101769.55
2024-01-11T21:47:11.450Z,101769.17
2024-01-11T21:49:44.599Z,101768.06
2024-01-11T21:52:16.696Z,101772.00
2024-01-11T21:54:48.849Z,101773.70
2024-01-11T21:57:21.076Z,101772.66
2024-01-11T21:59:53.215Z,101776.61
2024-01-11T22:02:25.353Z,101772.43
2024-01-11T22:04:57.983Z,101771.58
2024-01-11T22:07:30.313Z,101765.02
2024-01-11T22:10:02.502Z,101781.99
2024-01-11T22:12:34.503Z,101778.80
2024-01-11T22:15:09.133Z,101781.39
2024-01-11T22:17:41.929Z,101783.82
2024-01-11T22:20:15.663Z,101781.54
2024-01-11T22:22:47.928Z,101777.25
2024-01-11T22:25:20.323Z,101783.30
2024-01-11T22:27:52.588Z,101777.16
2024-01-11T22:30:24.770Z,101783.10
2024-01-11T22:32:57.058Z,101783.56
2024-01-11T22:35:29.210Z,101783.31
2024-01-11T22:38:01.253Z,101782.25
2024-01-11T22:40:33.400Z,101784.98
2024-01-11T22:43:05.727Z,101783.95
2024-01-11T22:45:37.750Z,101784.70
2024-01-11T22:48:10.760Z,101781.48
2024-01-11T22:50:43.514Z,101785.47
2024-01-11T22:53:15.774Z,101785.94
2024-01-11T22:55:48.526Z,101788.07
2024-01-11T22:58:20.911Z,101776.09
2024-01-11T23:00:54.087Z,101791.66
2024-01-11T23:03:26.781Z,101785.59
2024-01-11T23:05:59.357Z,101780.66
2024-01-11T23:08:31.858Z,101777.60
2024-01-11T23:11:04.702Z,101777.70
2024-01-11T23:13:39.131Z,101777.64
2024-01-11T23:16:11.246Z,101782.52
2024-01-11T23:18:45.114Z,101786.21
2024-01-11T23:21:17.747Z,101784.23
2024-01-11T23:23:50.667Z,101786.23
2024-01-11T23:26:22.875Z,101776.77
2024-01-11T23:28:54.878Z,101789.80
2024-01-11T23:31:27.239Z,101785.60
2024-01-11T23:33:59.880Z,101786.21
2024-01-11T23:36:32.083Z,101786.59
2024-01-11T23:39:04.370Z,101793.18
2024-01-11T23:41:36.552Z,101799.61
2024-01-11T23:44:08.912Z,101808.06
2024-01-11T23:46:41.065Z,101805.34
2024-01-11T23:49:13.334Z,101811.83
2024-01-11T23:51:45.619Z,101817.36
2024-01-11T23:54:17.944Z,101820.09
2024-01-11T23:56:50.551Z,101820.50
2024-01-11T23:59:22.779Z,101823.67
